createdAt,value
2019-01-16T00:01:23.439Z,98401.95
2019-01-16T00:03:50.454Z,98405.86
2019-01-16T00:06:17.550Z,98407.33
2019-01-16T00:08:44.708Z,98398.11
2019-01-16T00:11:11.803Z,98405.77
2019-01-16T00:13:38.852Z,98405.11
2019-01-16T00:16:05.572Z,98403.20
2019-01-16T00:18:32.207Z,98405.45
2019-01-16T00:20:59.816Z,98408.76
2019-01-16T00:23:26.466Z,98417.78
2019-01-16T00:25:53.081Z,98404.90
2019-01-16T00:28:19.749Z,98408.37
2019-01-16T00:30:47.054Z,98419.90
2019-01-16T00:33:13.747Z,98406.55
2019-01-16T00:35:40.741Z,98419.50
2019-01-16T00:38:07.842Z,98434.25
2019-01-16T00:40:34.820Z,98433.73
2019-01-16T00:43:02.444Z,98434.06
2019-01-16T00:45:30.270Z,98436.27
2019-01-16T00:47:57.334Z,98445.67
2019-01-16T00:50:24.030Z,98443.34
2019-01-16T00:52:51.233Z,98450.79
2019-01-16T00:55:18.236Z,98437.84
2019-01-16T00:57:45.291Z,98462.84
2019-01-16T01:00:12.342Z,98458.61
2019-01-16T01:02:39.383Z,98458.34
2019-01-16T01:05:07.100Z,98463.06
2019-01-16T01:07:34.210Z,98469.06
2019-01-16T01:10:01.876Z,98469.06
2019-01-16T01:12:28.912Z,98459.67
2019-01-16T01:14:55.952Z,98466.31
2019-01-16T01:17:22.993Z,98478.12
2019-01-16T01:19:50.671Z,98475.70
2019-01-16T01:22:17.304Z,98475.19
2019-01-16T01:24:44.368Z,98480.19
2019-01-16T01:27:11.521Z,98470.83
2019-01-16T01:29:38.545Z,98505.62
2019-01-16T01:32:05.669Z,98494.91
2019-01-16T01:34:32.766Z,98485.29
2019-01-16T01:36:59.401Z,98489.04
2019-01-16T01:39:26.320Z,98494.31
2019-01-16T01:41:53.389Z,98492.87
2019-01-16T01:44:20.440Z,98503.69
2019-01-16T01:46:47.072Z,98502.14
2019-01-16T01:49:13.774Z,98498.81
2019-01-16T01:51:40.352Z,98499.19
2019-01-16T01:54:07.017Z,98492.05
2019-01-16T01:56:33.654Z,98498.53
2019-01-16T01:59:00.288Z,98501.19
2019-01-16T02:01:27.006Z,98499.77
2019-01-16T02:03:54.130Z,98509.67
2019-01-16T02:06:21.215Z,98508.59
2019-01-16T02:08:48.332Z,98489.50
2019-01-16T02:11:16.133Z,98501.80
2019-01-16T02:13:43.170Z,98500.02
2019-01-16T02:16:09.832Z,98505.75
2019-01-16T02:18:36.842Z,98502.11
2019-01-16T02:21:03.549Z,98514.95
2019-01-16T02:23:30.160Z,98523.42
2019-01-16T02:25:57.183Z,98515.88
2019-01-16T02:28:23.840Z,98505.91
2019-01-16T02:30:50.482Z,98511.91
2019-01-16T02:33:17.061Z,98512.72
2019-01-16T02:35:44.329Z,98516.28
2019-01-16T02:38:10.977Z,98513.30
2019-01-16T02:40:37.608Z,98507.67
2019-01-16T02:43:04.267Z,98501.61
2019-01-16T02:45:30.910Z,98506.84
2019-01-16T02:47:57.930Z,98507.34
2019-01-16T02:50:24.998Z,98525.16
2019-01-16T02:52:51.598Z,98527.59
2019-01-16T02:55:18.235Z,98517.45
2019-01-16T02:57:44.870Z,98517.18
2019-01-16T03:00:11.477Z,98505.89
2019-01-16T03:02:38.597Z,98502.34
2019-01-16T03:05:05.667Z,98519.02
2019-01-16T03:07:32.299Z,98517.94
2019-01-16T03:09:59.434Z,98517.55
2019-01-16T03:12:26.504Z,98515.23
2019-01-16T03:14:53.532Z,98512.68
2019-01-16T03:17:20.446Z,98540.88
2019-01-16T03:19:47.118Z,98534.26
2019-01-16T03:22:14.168Z,98523.89
2019-01-16T03:24:41.335Z,98536.11
2019-01-16T03:27:08.374Z,98531.21
2019-01-16T03:29:35.426Z,98525.50
2019-01-16T03:32:02.462Z,98525.97
2019-01-16T03:34:29.524Z,98535.20
2019-01-16T03:36:56.200Z,98542.91
2019-01-16T03:39:23.201Z,98532.70
2019-01-16T03:41:50.891Z,98527.30
2019-01-16T03:44:17.882Z,98531.14
2019-01-16T03:46:44.954Z,98537.77
2019-01-16T03:49:13.807Z,98534.47
2019-01-16T03:51:40.935Z,98536.62
2019-01-16T03:54:07.938Z,98537.80
2019-01-16T03:56:35.410Z,98546.91
2019-01-16T03:59:02.426Z,98531.81
2019-01-16T04:01:29.487Z,98543.92
2019-01-16T04:03:56.191Z,98553.03
2019-01-16T04:06:23.176Z,98542.58
2019-01-16T04:08:49.757Z,98552.35
2019-01-16T04:11:16.740Z,98556.91
2019-01-16T04:13:43.811Z,98567.95
2019-01-16T04:16:10.424Z,98549.79
2019-01-16T04:18:37.512Z,98558.59
2019-01-16T04:21:04.115Z,98567.87
2019-01-16T04:23:31.194Z,98556.48
2019-01-16T04:25:57.867Z,98569.68
2019-01-16T04:28:24.451Z,98557.58
2019-01-16T04:30:51.519Z,98565.69
2019-01-16T04:33:18.548Z,98565.81
2019-01-16T04:35:45.621Z,98580.39
2019-01-16T04:38:12.639Z,98575.67
2019-01-16T04:40:39.696Z,98571.84
2019-01-16T04:43:06.745Z,98583.95
2019-01-16T04:45:33.332Z,98589.03
2019-01-16T04:48:00.408Z,98587.77
2019-01-16T04:50:26.990Z,98581.62
2019-01-16T04:52:53.584Z,98584.53
2019-01-16T04:55:21.255Z,98587.36
2019-01-16T04:57:47.845Z,98599.47
2019-01-16T05:00:14.853Z,98601.95
2019-01-16T05:02:41.921Z,98595.54
2019-01-16T05:05:08.558Z,98589.22
2019-01-16T05:07:35.600Z,98600.67
2019-01-16T05:10:02.734Z,98598.69
2019-01-16T05:12:29.554Z,98615.36
2019-01-16T05:14:56.877Z,98611.29
2019-01-16T05:17:23.540Z,98602.99
2019-01-16T05:19:51.313Z,98607.06
2019-01-16T05:22:19.027Z,98597.68
2019-01-16T05:24:46.120Z,98603.81
2019-01-16T05:27:12.709Z,98608.55
2019-01-16T05:29:39.749Z,98602.08
2019-01-16T05:32:06.385Z,98600.91
2019-01-16T05:34:33.501Z,98602.38
2019-01-16T05:37:00.132Z,98610.37
2019-01-16T05:39:27.203Z,98604.05
2019-01-16T05:41:54.132Z,98611.17
2019-01-16T05:44:21.191Z,98620.54
2019-01-16T05:46:48.755Z,98626.63
2019-01-16T05:49:16.474Z,98631.93
2019-01-16T05:51:43.456Z,98624.70
2019-01-16T05:54:10.509Z,98630.51
2019-01-16T05:56:37.557Z,98635.63
2019-01-16T05:59:04.615Z,98640.45
2019-01-16T06:01:31.667Z,98639.39
2019-01-16T06:03:58.308Z,98647.03
2019-01-16T06:06:25.850Z,98645.60
2019-01-16T06:08:52.909Z,98650.91
2019-01-16T06:11:19.553Z,98650.08
2019-01-16T06:13:46.166Z,98648.67
2019-01-16T06:16:13.132Z,98646.02
2019-01-16T06:18:40.293Z,98659.95
2019-01-16T06:21:07.341Z,98655.08
2019-01-16T06:23:35.031Z,98658.40
2019-01-16T06:26:01.728Z,98659.80
2019-01-16T06:28:28.772Z,98662.13
2019-01-16T06:30:55.824Z,98657.45
2019-01-16T06:33:22.875Z,98662.70
2019-01-16T06:35:49.474Z,98676.05
2019-01-16T06:38:16.556Z,98687.61
2019-01-16T06:40:43.606Z,98667.03
2019-01-16T06:43:10.242Z,98668.67
2019-01-16T06:45:36.853Z,98667.92
2019-01-16T06:48:04.003Z,98679.55
2019-01-16T06:50:30.600Z,98682.11
2019-01-16T06:52:57.239Z,98672.80
2019-01-16T06:55:24.361Z,98676.64
2019-01-16T06:57:51.408Z,98680.03
2019-01-16T07:00:17.991Z,98676.12
2019-01-16T07:02:44.617Z,98680.16
2019-01-16T07:05:11.316Z,98679.77
2019-01-16T07:07:38.367Z,98695.11
2019-01-16T07:10:05.428Z,98696.87
2019-01-16T07:12:32.140Z,98712.80
2019-01-16T07:14:59.219Z,98710.07
2019-01-16T07:17:26.923Z,98710.22
2019-01-16T07:19:54.660Z,98715.09
2019-01-16T07:22:22.340Z,98736.30
2019-01-16T07:24:49.343Z,98713.52
2019-01-16T07:27:16.501Z,98720.30
2019-01-16T07:29:43.584Z,98734.76
2019-01-16T07:32:10.616Z,98713.81
2019-01-16T07:34:37.663Z,98728.58
2019-01-16T07:37:04.378Z,98736.14
2019-01-16T07:39:31.110Z,98731.06
2019-01-16T07:41:58.167Z,98752.50
2019-01-16T07:44:25.304Z,98744.86
2019-01-16T07:46:52.457Z,98735.45
2019-01-16T07:49:19.137Z,98760.13
2019-01-16T07:51:46.232Z,98758.30
2019-01-16T07:54:12.983Z,98752.38
2019-01-16T07:56:40.136Z,98759.75
2019-01-16T07:59:07.290Z,98769.23
2019-01-16T08:01:34.031Z,98767.47
2019-01-16T08:04:00.880Z,98754.70
2019-01-16T08:06:27.597Z,98772.05
2019-01-16T08:08:54.362Z,98762.93
2019-01-16T08:11:21.190Z,98775.11
2019-01-16T08:13:47.921Z,98772.02
2019-01-16T08:16:14.663Z,98780.56
2019-01-16T08:18:41.527Z,98791.28
2019-01-16T08:21:08.247Z,98791.13
2019-01-16T08:23:35.423Z,98794.02
2019-01-16T08:26:02.548Z,98804.84
2019-01-16T08:28:29.312Z,98801.16
2019-01-16T08:30:56.428Z,98794.60
2019-01-16T08:33:23.567Z,98797.59
2019-01-16T08:35:50.291Z,98789.66
2019-01-16T08:38:16.933Z,98797.17
2019-01-16T08:40:43.730Z,98808.16
2019-01-16T08:43:10.412Z,98795.77
2019-01-16T08:45:37.096Z,98806.34
2019-01-16T08:48:04.972Z,98809.55
2019-01-16T08:50:32.928Z,98829.42
2019-01-16T08:53:00.039Z,98836.61
2019-01-16T08:55:27.432Z,98823.38
2019-01-16T08:57:54.572Z,98838.07
2019-01-16T09:00:21.523Z,98829.36
2019-01-16T09:02:48.300Z,98849.73
2019-01-16T09:05:21.640Z,98838.23
2019-01-16T09:07:48.649Z,98850.97
2019-01-16T09:10:16.748Z,98844.16
2019-01-16T09:12:43.819Z,98855.40
2019-01-16T09:15:10.824Z,98852.81
2019-01-16T09:17:38.217Z,98858.11
2019-01-16T09:20:21.707Z,98853.30
2019-01-16T09:22:54.213Z,98860.61
2019-01-16T09:25:27.796Z,98853.53
2019-01-16T09:27:54.625Z,98863.13
2019-01-16T09:30:25.016Z,98849.98
2019-01-16T09:32:52.451Z,98869.03
2019-01-16T09:35:19.191Z,98862.48
2019-01-16T09:37:46.183Z,98859.64
2019-01-16T09:40:13.151Z,98864.28
2019-01-16T09:42:40.224Z,98869.10
2019-01-16T09:45:07.375Z,98864.19
2019-01-16T09:47:34.444Z,98860.45
2019-01-16T09:50:01.450Z,98857.29
2019-01-16T09:52:28.516Z,98863.71
2019-01-16T09:54:55.469Z,98860.77
2019-01-16T09:57:22.119Z,98863.13
2019-01-16T09:59:49.224Z,98864.76
2019-01-16T10:02:16.233Z,98859.69
2019-01-16T10:04:43.115Z,98871.23
2019-01-16T10:07:09.882Z,98870.41
2019-01-16T10:09:36.907Z,98859.27
2019-01-16T10:12:12.964Z,98865.69
2019-01-16T10:14:40.101Z,98862.59
2019-01-16T10:17:07.154Z,98865.66
2019-01-16T10:19:34.238Z,98860.92
2019-01-16T10:22:01.451Z,98862.74
2019-01-16T10:24:28.534Z,98857.75
2019-01-16T10:26:55.234Z,98862.23
2019-01-16T10:29:22.405Z,98861.23
2019-01-16T10:31:49.030Z,98849.91
2019-01-16T10:34:15.592Z,98846.41
2019-01-16T10:36:42.832Z,98840.73
2019-01-16T10:39:09.437Z,98847.98
2019-01-16T10:41:36.500Z,98860.65
2019-01-16T10:44:04.039Z,98842.60
2019-01-16T10:46:30.674Z,98855.06
2019-01-16T10:48:57.747Z,98841.73
2019-01-16T10:51:24.497Z,98837.72
2019-01-16T10:53:51.519Z,98847.28
2019-01-16T10:56:18.428Z,98842.42
2019-01-16T10:58:45.620Z,98838.05
2019-01-16T11:01:12.372Z,98839.59
2019-01-16T11:03:39.207Z,98834.79
2019-01-16T11:06:06.247Z,98829.13
2019-01-16T11:08:33.291Z,98836.50
2019-01-16T11:11:00.391Z,98841.66
2019-01-16T11:13:27.588Z,98833.31
2019-01-16T11:15:54.604Z,98835.56
2019-01-16T11:18:21.620Z,98833.36
2019-01-16T11:20:48.318Z,98831.39
2019-01-16T11:23:15.013Z,98824.14
2019-01-16T11:25:41.718Z,98822.81
2019-01-16T11:28:09.137Z,98829.20
2019-01-16T11:30:35.771Z,98825.77
2019-01-16T11:33:02.825Z,98826.09
2019-01-16T11:35:29.611Z,98818.68
2019-01-16T11:37:56.815Z,98813.22
2019-01-16T11:40:24.004Z,98815.77
2019-01-16T11:42:50.709Z,98820.19
2019-01-16T11:45:17.682Z,98810.61
2019-01-16T11:47:44.316Z,98815.52
2019-01-16T11:50:11.728Z,98817.73
2019-01-16T11:52:38.804Z,98819.44
2019-01-16T11:55:05.961Z,98814.27
2019-01-16T11:57:33.155Z,98809.41
2019-01-16T12:00:00.251Z,98822.44
2019-01-16T12:02:29.679Z,98830.14
2019-01-16T12:04:56.389Z,98807.84
2019-01-16T12:07:23.518Z,98810.80
2019-01-16T12:09:53.578Z,98822.69
2019-01-16T12:12:20.677Z,98806.64
2019-01-16T12:14:47.823Z,98826.55
2019-01-16T12:17:14.907Z,98815.71
2019-01-16T12:19:42.491Z,98821.84
2019-01-16T12:22:09.165Z,98805.80
2019-01-16T12:24:35.772Z,98815.59
2019-01-16T12:27:02.527Z,98812.59
2019-01-16T12:29:29.658Z,98823.16
2019-01-16T12:31:56.709Z,98816.76
2019-01-16T12:34:23.343Z,98817.96
2019-01-16T12:36:49.910Z,98817.13
2019-01-16T12:39:17.042Z,98814.56
2019-01-16T12:41:44.136Z,98812.52
2019-01-16T12:44:10.832Z,98815.99
2019-01-16T12:46:38.314Z,98818.28
2019-01-16T12:49:06.042Z,98816.45
2019-01-16T12:51:33.801Z,98816.52
2019-01-16T12:54:01.330Z,98813.28
2019-01-16T12:56:30.973Z,98819.68
2019-01-16T12:58:58.090Z,98811.58
2019-01-16T13:01:25.873Z,98810.50
2019-01-16T13:03:53.622Z,98813.04
2019-01-16T13:06:20.279Z,98804.55
2019-01-16T13:08:47.016Z,98810.64
2019-01-16T13:11:14.134Z,98813.02
2019-01-16T13:13:40.858Z,98804.61
2019-01-16T13:16:08.707Z,98802.11
2019-01-16T13:18:37.219Z,98804.59
2019-01-16T13:21:04.313Z,98806.41
2019-01-16T13:23:31.195Z,98815.49
2019-01-16T13:25:58.340Z,98812.06
2019-01-16T13:28:27.256Z,98815.66
2019-01-16T13:30:55.128Z,98808.85
2019-01-16T13:33:22.355Z,98806.58
2019-01-16T13:35:49.153Z,98801.73
2019-01-16T13:38:16.153Z,98803.36
2019-01-16T13:40:43.120Z,98805.61
2019-01-16T13:43:10.110Z,98808.77
2019-01-16T13:45:37.090Z,98808.07
2019-01-16T13:48:04.090Z,98800.53
2019-01-16T13:50:33.268Z,98800.52
2019-01-16T13:52:59.937Z,98801.27
2019-01-16T13:55:27.398Z,98797.74
2019-01-16T13:57:54.310Z,98793.91
2019-01-16T14:00:21.659Z,98798.75
2019-01-16T14:02:48.729Z,98800.27
2019-01-16T14:05:15.831Z,98804.97
2019-01-16T14:07:43.054Z,98803.77
2019-01-16T14:10:09.781Z,98807.02
2019-01-16T14:12:36.935Z,98809.08
2019-01-16T14:15:04.283Z,98799.61
2019-01-16T14:17:31.329Z,98811.61
2019-01-16T14:19:58.759Z,98803.50
2019-01-16T14:22:26.679Z,98797.58
2019-01-16T14:24:53.351Z,98801.99
2019-01-16T14:27:20.510Z,98797.83
2019-01-16T14:29:47.340Z,98796.91
2019-01-16T14:32:14.330Z,98793.55
2019-01-16T14:34:41.247Z,98798.20
2019-01-16T14:37:08.316Z,98791.94
2019-01-16T14:39:35.091Z,98797.15
2019-01-16T14:42:02.299Z,98785.69
2019-01-16T14:44:31.785Z,98783.11
2019-01-16T14:46:58.914Z,98788.44
2019-01-16T14:49:26.112Z,98785.44
2019-01-16T14:51:59.488Z,98780.45
2019-01-16T14:54:22.366Z,98781.96
2019-01-16T14:56:49.623Z,98783.78
2019-01-16T14:59:16.864Z,98781.86
2019-01-16T15:01:44.029Z,98780.54
2019-01-16T15:04:11.111Z,98771.98
2019-01-16T15:06:39.004Z,98781.99
2019-01-16T15:09:05.729Z,98779.58
2019-01-16T15:11:32.730Z,98785.64
2019-01-16T15:13:59.474Z,98779.32
2019-01-16T15:16:26.515Z,98776.02
2019-01-16T15:18:53.363Z,98779.41
2019-01-16T15:21:20.067Z,98772.09
2019-01-16T15:23:47.602Z,98778.38
2019-01-16T15:26:15.061Z,98780.20
2019-01-16T15:28:44.004Z,98773.20
2019-01-16T15:31:11.785Z,98774.20
2019-01-16T15:33:38.597Z,98770.15
2019-01-16T15:36:06.008Z,98772.55
2019-01-16T15:38:32.685Z,98770.66
2019-01-16T15:40:59.736Z,98770.55
2019-01-16T15:43:26.695Z,98769.75
2019-01-16T15:45:53.406Z,98777.06
2019-01-16T15:48:20.120Z,98770.75
2019-01-16T15:50:46.885Z,98772.81
2019-01-16T15:53:13.951Z,98770.38
2019-01-16T15:55:41.794Z,98773.70
2019-01-16T15:58:09.165Z,98777.72
2019-01-16T16:00:36.592Z,98784.54
2019-01-16T16:03:03.677Z,98778.81
2019-01-16T16:05:30.426Z,98778.23
2019-01-16T16:07:58.168Z,98783.39
2019-01-16T16:10:24.924Z,98782.31
2019-01-16T16:12:52.779Z,98780.21
2019-01-16T16:15:19.839Z,98775.80
2019-01-16T16:17:47.654Z,98784.06
2019-01-16T16:20:14.757Z,98767.59
2019-01-16T16:22:42.130Z,98779.48
2019-01-16T16:25:08.833Z,98774.50
2019-01-16T16:27:36.002Z,98778.91
2019-01-16T16:30:03.155Z,98775.59
2019-01-16T16:32:29.870Z,98780.25
2019-01-16T16:34:56.964Z,98780.77
2019-01-16T16:37:23.752Z,98787.83
2019-01-16T16:39:51.486Z,98781.69
2019-01-16T16:42:18.505Z,98784.66
2019-01-16T16:44:45.641Z,98785.48
2019-01-16T16:47:12.803Z,98774.11
2019-01-16T16:49:40.040Z,98776.45
2019-01-16T16:52:07.508Z,98773.37
2019-01-16T16:54:34.641Z,98770.39
2019-01-16T16:57:01.680Z,98771.89
2019-01-16T16:59:28.386Z,98767.31
2019-01-16T17:01:55.507Z,98764.84
2019-01-16T17:04:22.663Z,98769.23
2019-01-16T17:06:49.340Z,98767.83
2019-01-16T17:09:16.072Z,98766.25
2019-01-16T17:11:43.125Z,98760.18
2019-01-16T17:14:09.856Z,98760.69
2019-01-16T17:16:36.566Z,98756.30
2019-01-16T17:19:04.257Z,98754.88
2019-01-16T17:21:31.360Z,98750.73
2019-01-16T17:23:58.514Z,98754.88
2019-01-16T17:26:25.310Z,98753.63
2019-01-16T17:28:51.998Z,98749.48
2019-01-16T17:31:18.689Z,98744.84
2019-01-16T17:33:45.879Z,98743.95
2019-01-16T17:36:13.627Z,98746.67
2019-01-16T17:38:40.611Z,98741.29
2019-01-16T17:41:07.948Z,98741.84
2019-01-16T17:43:34.633Z,98745.00
2019-01-16T17:46:01.746Z,98750.66
2019-01-16T17:48:28.865Z,98746.26
2019-01-16T17:50:55.936Z,98741.50
2019-01-16T17:53:22.963Z,98738.52
2019-01-16T17:55:50.132Z,98734.14
2019-01-16T17:58:17.186Z,98727.66
2019-01-16T18:00:44.238Z,98725.33
2019-01-16T18:03:11.026Z,98721.00
2019-01-16T18:05:37.763Z,98719.51
2019-01-16T18:08:04.764Z,98715.70
2019-01-16T18:10:32.018Z,98711.36
2019-01-16T18:12:59.185Z,98708.27
2019-01-16T18:15:25.891Z,98704.62
2019-01-16T18:17:53.088Z,98697.40
2019-01-16T18:20:20.261Z,98697.37
2019-01-16T18:22:48.193Z,98698.09
2019-01-16T18:25:14.945Z,98704.87
2019-01-16T18:27:41.686Z,98697.48
2019-01-16T18:30:08.491Z,98700.41
2019-01-16T18:32:35.204Z,98695.92
2019-01-16T18:35:02.263Z,98690.77
2019-01-16T18:37:38.344Z,98693.59
2019-01-16T18:40:05.342Z,98682.86
2019-01-16T18:42:32.372Z,98679.12
2019-01-16T18:44:59.536Z,98679.62
2019-01-16T18:47:26.633Z,98670.96
2019-01-16T18:49:53.342Z,98673.73
2019-01-16T18:52:20.406Z,98674.08
2019-01-16T18:54:47.113Z,98676.74
2019-01-16T18:57:14.221Z,98675.57
2019-01-16T18:59:41.669Z,98672.84
2019-01-16T19:02:08.327Z,98668.78
2019-01-16T19:04:35.529Z,98665.36
2019-01-16T19:07:02.375Z,98665.28
2019-01-16T19:09:29.097Z,98667.63
2019-01-16T19:11:57.879Z,98671.34
2019-01-16T19:14:25.043Z,98667.45
2019-01-16T19:16:51.890Z,98664.55
2019-01-16T19:19:18.961Z,98664.64
2019-01-16T19:21:46.030Z,98665.38
2019-01-16T19:24:12.743Z,98660.16
2019-01-16T19:26:39.552Z,98661.66
2019-01-16T19:29:06.239Z,98656.09
2019-01-16T19:31:32.978Z,98661.18
2019-01-16T19:34:00.129Z,98651.63
2019-01-16T19:36:27.106Z,98642.11
2019-01-16T19:38:53.821Z,98644.99
2019-01-16T19:41:20.938Z,98636.95
2019-01-16T19:43:47.648Z,98635.22
2019-01-16T19:46:14.457Z,98634.89
2019-01-16T19:48:41.104Z,98634.05
2019-01-16T19:51:08.280Z,98636.87
2019-01-16T19:53:35.611Z,98627.67
2019-01-16T19:56:02.309Z,98624.02
2019-01-16T19:58:31.656Z,98634.23
2019-01-16T20:00:58.412Z,98626.28
2019-01-16T20:03:25.052Z,98624.38
2019-01-16T20:05:51.742Z,98620.80
2019-01-16T20:08:23.410Z,98618.99
2019-01-16T20:10:50.702Z,98619.07
2019-01-16T20:13:17.405Z,98611.27
2019-01-16T20:15:46.840Z,98614.01
2019-01-16T20:18:13.990Z,98612.94
2019-01-16T20:20:40.782Z,98605.91
2019-01-16T20:23:11.135Z,98600.27
2019-01-16T20:25:37.688Z,98597.45
2019-01-16T20:28:07.980Z,98583.67
2019-01-16T20:30:35.058Z,98582.63
2019-01-16T20:33:04.261Z,98586.28
2019-01-16T20:35:30.693Z,98578.80
2019-01-16T20:37:57.469Z,98575.43
2019-01-16T20:40:24.158Z,98577.41
2019-01-16T20:42:51.007Z,98581.14
2019-01-16T20:45:18.067Z,98585.71
2019-01-16T20:47:44.748Z,98582.73
2019-01-16T20:50:12.054Z,98574.52
2019-01-16T20:52:38.750Z,98575.03
2019-01-16T20:55:05.807Z,98575.84
2019-01-16T20:57:32.566Z,98576.11
2019-01-16T20:59:59.215Z,98574.54
2019-01-16T21:02:25.903Z,98572.21
2019-01-16T21:04:53.019Z,98580.83
2019-01-16T21:07:19.731Z,98585.33
2019-01-16T21:09:46.465Z,98590.86
2019-01-16T21:12:13.629Z,98588.23
2019-01-16T21:14:40.331Z,98571.88
2019-01-16T21:17:07.513Z,98571.81
2019-01-16T21:19:34.163Z,98568.48
2019-01-16T21:22:00.948Z,98576.96
2019-01-16T21:24:27.594Z,98562.77
2019-01-16T21:26:54.290Z,98556.64
2019-01-16T21:29:21.551Z,98550.18
2019-01-16T21:31:48.222Z,98542.63
2019-01-16T21:34:15.295Z,98542.47
2019-01-16T21:36:42.087Z,98537.33
2019-01-16T21:39:09.230Z,98536.75
2019-01-16T21:41:35.923Z,98524.91
2019-01-16T21:44:02.637Z,98524.23
2019-01-16T21:46:29.329Z,98534.09
2019-01-16T21:48:56.376Z,98526.55
2019-01-16T21:51:24.179Z,98534.86
2019-01-16T21:53:51.306Z,98537.33
2019-01-16T21:56:18.331Z,98543.80
2019-01-16T21:58:45.548Z,98542.22
2019-01-16T22:01:12.635Z,98537.16
2019-01-16T22:03:39.320Z,98528.72
2019-01-16T22:06:06.738Z,98531.62
2019-01-16T22:08:33.457Z,98521.83
2019-01-16T22:11:00.520Z,98520.34
2019-01-16T22:13:27.241Z,98496.73
2019-01-16T22:15:53.962Z,98479.50
2019-01-16T22:18:21.039Z,98479.25
2019-01-16T22:20:47.832Z,98475.21
2019-01-16T22:23:14.941Z,98466.67
2019-01-16T22:25:42.117Z,98472.14
2019-01-16T22:28:09.238Z,98468.65
2019-01-16T22:30:36.293Z,98471.80
2019-01-16T22:33:03.461Z,98461.61
2019-01-16T22:35:30.168Z,98459.87
2019-01-16T22:37:57.313Z,98456.64
2019-01-16T22:40:24.401Z,98442.31
2019-01-16T22:42:51.127Z,98446.05
2019-01-16T22:45:18.273Z,98440.07
2019-01-16T22:47:45.321Z,98436.20
2019-01-16T22:50:12.669Z,98428.00
2019-01-16T22:52:39.384Z,98428.31
2019-01-16T22:55:06.529Z,98426.25
2019-01-16T22:57:33.224Z,98412.34
2019-01-16T22:59:59.916Z,98401.92
2019-01-16T23:02:26.629Z,98407.45
2019-01-16T23:04:53.736Z,98393.80
2019-01-16T23:07:20.378Z,98392.87
2019-01-16T23:09:47.035Z,98389.01
2019-01-16T23:12:14.160Z,98383.04
2019-01-16T23:14:40.880Z,98373.44
2019-01-16T23:17:07.594Z,98378.47
2019-01-16T23:19:34.260Z,98372.52
2019-01-16T23:22:01.237Z,98379.38
2019-01-16T23:24:28.046Z,98376.09
2019-01-16T23:26:54.787Z,98374.34
2019-01-16T23:29:22.162Z,98370.69
2019-01-16T23:31:48.878Z,98361.77
2019-01-16T23:34:16.719Z,98349.60
2019-01-16T23:36:43.513Z,98351.41
2019-01-16T23:39:10.598Z,98352.82
2019-01-16T23:41:38.370Z,98342.16
2019-01-16T23:44:05.485Z,98347.03
2019-01-16T23:46:32.629Z,98338.00
2019-01-16T23:48:59.992Z,98336.02
2019-01-16T23:51:27.129Z,98329.56
2019-01-16T23:53:56.236Z,98322.28
2019-01-16T23:56:22.917Z,98314.09
2019-01-16T23:58:49.613Z,98316.58
